createdAt,value
2019-03-05T00:02:13.633Z,19.57
2019-03-05T00:04:39.602Z,19.55
2019-03-05T00:07:05.649Z,19.57
2019-03-05T00:09:31.627Z,19.55
2019-03-05T00:11:57.637Z,19.55
2019-03-05T00:14:23.638Z,19.54
2019-03-05T00:16:50.680Z,19.55
2019-03-05T00:19:16.680Z,19.53
2019-03-05T00:21:42.651Z,19.53
2019-03-05T00:24:08.642Z,19.52
2019-03-05T00:26:34.617Z,19.52
2019-03-05T00:29:00.734Z,19.51
2019-03-05T00:31:26.846Z,19.50
2019-03-05T00:33:52.841Z,19.50
2019-03-05T00:36:18.920Z,19.49
2019-03-05T00:38:44.905Z,19.49
2019-03-05T00:41:10.885Z,19.48
2019-03-05T00:43:36.867Z,19.49
2019-03-05T00:46:03.948Z,19.49
2019-03-05T00:48:29.942Z,19.48
2019-03-05T00:50:55.938Z,19.47
2019-03-05T00:53:21.901Z,19.46
2019-03-05T00:55:49.811Z,19.46
2019-03-05T00:58:15.620Z,19.46
2019-03-05T01:00:41.616Z,19.45
2019-03-05T01:03:07.605Z,19.45
2019-03-05T01:05:33.624Z,19.44
2019-03-05T01:07:59.674Z,19.44
2019-03-05T01:10:25.705Z,19.42
2019-03-05T01:12:51.681Z,19.41
2019-03-05T01:15:17.674Z,19.42
2019-03-05T01:17:43.664Z,19.41
2019-03-05T01:20:09.656Z,19.41
2019-03-05T01:22:35.681Z,19.40
2019-03-05T01:25:01.655Z,19.40
2019-03-05T01:27:27.670Z,19.40
2019-03-05T01:29:53.688Z,19.39
2019-03-05T01:32:19.691Z,19.38
2019-03-05T01:34:45.661Z,19.38
2019-03-05T01:37:11.673Z,19.37
2019-03-05T01:39:37.992Z,19.38
2019-03-05T01:42:04.003Z,19.36
2019-03-05T01:44:29.992Z,19.36
2019-03-05T01:46:55.967Z,19.37
2019-03-05T01:49:21.997Z,19.36
2019-03-05T01:51:48.044Z,19.36
2019-03-05T01:54:14.028Z,19.35
2019-03-05T01:56:40.064Z,19.35
2019-03-05T01:59:06.063Z,19.33
2019-03-05T02:01:32.037Z,19.34
2019-03-05T02:03:58.016Z,19.33
2019-03-05T02:06:23.994Z,19.33
2019-03-05T02:08:49.967Z,19.33
2019-03-05T02:11:15.960Z,19.32
2019-03-05T02:13:41.976Z,19.32
2019-03-05T02:16:07.980Z,19.31
2019-03-05T02:18:33.983Z,19.30
2019-03-05T02:20:59.961Z,19.31
2019-03-05T02:23:25.951Z,19.31
2019-03-05T02:25:51.930Z,19.31
2019-03-05T02:28:17.900Z,19.33
2019-03-05T02:30:43.884Z,19.35
2019-03-05T02:33:09.869Z,19.35
2019-03-05T02:35:35.866Z,19.37
2019-03-05T02:38:05.501Z,19.38
2019-03-05T02:40:29.607Z,19.39
2019-03-05T02:42:55.684Z,19.41
2019-03-05T02:45:21.665Z,19.42
2019-03-05T02:47:47.656Z,19.42
2019-03-05T02:50:13.651Z,19.44
2019-03-05T02:52:39.637Z,19.45
2019-03-05T02:55:05.623Z,19.47
2019-03-05T02:57:31.660Z,19.47
2019-03-05T02:59:57.704Z,19.47
2019-03-05T03:02:24.858Z,19.49
2019-03-05T03:04:50.914Z,19.52
2019-03-05T03:07:16.927Z,19.53
2019-03-05T03:09:42.917Z,19.54
2019-03-05T03:12:08.896Z,19.54
2019-03-05T03:14:34.883Z,19.55
2019-03-05T03:17:00.861Z,19.56
2019-03-05T03:19:26.866Z,19.56
2019-03-05T03:21:52.882Z,19.56
2019-03-05T03:24:18.858Z,19.58
2019-03-05T03:26:44.861Z,19.57
2019-03-05T03:29:10.852Z,19.58
2019-03-05T03:31:36.853Z,19.58
2019-03-05T03:34:02.844Z,19.60
2019-03-05T03:36:29.880Z,19.60
2019-03-05T03:38:55.865Z,19.60
2019-03-05T03:41:21.886Z,19.60
2019-03-05T03:43:47.914Z,19.61
2019-03-05T03:46:13.885Z,19.62
2019-03-05T03:48:39.916Z,19.62
2019-03-05T03:51:05.972Z,19.63
2019-03-05T03:53:31.959Z,19.63
2019-03-05T03:55:57.948Z,19.65
2019-03-05T03:58:23.925Z,19.64
2019-03-05T04:00:49.936Z,19.64
2019-03-05T04:03:16.004Z,19.65
2019-03-05T04:05:41.983Z,19.65
2019-03-05T04:08:10.292Z,19.65
2019-03-05T04:10:35.671Z,19.65
2019-03-05T04:13:01.672Z,19.66
2019-03-05T04:15:27.655Z,19.66
2019-03-05T04:17:53.636Z,19.67
2019-03-05T04:20:19.712Z,19.67
2019-03-05T04:22:45.768Z,19.68
2019-03-05T04:25:11.823Z,19.68
2019-03-05T04:27:37.934Z,19.68
2019-03-05T04:30:03.992Z,19.69
2019-03-05T04:32:29.976Z,19.69
2019-03-05T04:34:55.970Z,19.71
2019-03-05T04:37:21.952Z,19.71
2019-03-05T04:39:47.955Z,19.70
2019-03-05T04:42:13.951Z,19.71
2019-03-05T04:44:39.920Z,19.72
2019-03-05T04:47:05.913Z,19.72
2019-03-05T04:49:31.957Z,19.73
2019-03-05T04:51:57.949Z,19.73
2019-03-05T04:54:23.931Z,19.73
2019-03-05T04:56:49.927Z,19.73
2019-03-05T04:59:15.909Z,19.73
2019-03-05T05:01:41.932Z,19.74
2019-03-05T05:04:07.918Z,19.75
2019-03-05T05:06:33.886Z,19.74
2019-03-05T05:08:59.900Z,19.74
2019-03-05T05:11:25.875Z,19.75
2019-03-05T05:13:51.951Z,19.75
2019-03-05T05:16:17.933Z,19.75
2019-03-05T05:18:43.914Z,19.75
2019-03-05T05:21:09.886Z,19.75
2019-03-05T05:23:35.875Z,19.75
2019-03-05T05:26:01.876Z,19.75
2019-03-05T05:28:27.857Z,19.74
2019-03-05T05:30:53.836Z,19.75
2019-03-05T05:33:19.855Z,19.74
2019-03-05T05:35:45.826Z,19.73
2019-03-05T05:38:11.836Z,19.74
2019-03-05T05:40:37.880Z,19.74
2019-03-05T05:43:03.872Z,19.75
2019-03-05T05:45:29.995Z,19.74
2019-03-05T05:47:55.968Z,19.74
2019-03-05T05:50:21.946Z,19.76
2019-03-05T05:52:47.919Z,19.76
2019-03-05T05:55:13.991Z,19.76
2019-03-05T05:57:39.964Z,19.76
2019-03-05T06:00:06.046Z,19.76
2019-03-05T06:02:32.065Z,19.76
2019-03-05T06:04:58.101Z,19.77
2019-03-05T06:07:24.152Z,19.77
2019-03-05T06:09:50.135Z,19.77
2019-03-05T06:12:16.127Z,19.78
2019-03-05T06:14:42.097Z,19.78
2019-03-05T06:17:08.098Z,19.78
2019-03-05T06:19:34.069Z,19.78
2019-03-05T06:22:00.168Z,19.79
2019-03-05T06:24:26.171Z,19.79
2019-03-05T06:26:52.147Z,19.79
2019-03-05T06:29:18.170Z,19.79
2019-03-05T06:31:44.157Z,19.79
2019-03-05T06:34:10.129Z,19.80
2019-03-05T06:36:36.224Z,19.80
2019-03-05T06:39:02.232Z,19.80
2019-03-05T06:41:28.236Z,19.80
2019-03-05T06:43:54.201Z,19.79
2019-03-05T06:46:20.180Z,19.79
2019-03-05T06:48:46.159Z,19.79
2019-03-05T06:51:12.142Z,19.79
2019-03-05T06:53:38.120Z,19.79
2019-03-05T06:56:04.124Z,19.78
2019-03-05T06:58:30.120Z,19.77
2019-03-05T07:00:56.112Z,19.79
2019-03-05T07:03:22.105Z,19.78
2019-03-05T07:05:48.099Z,19.79
2019-03-05T07:08:15.739Z,19.79
2019-03-05T07:10:42.743Z,19.80
2019-03-05T07:13:08.803Z,19.81
2019-03-05T07:15:34.785Z,19.81
2019-03-05T07:18:00.773Z,19.83
2019-03-05T07:20:26.765Z,19.82
2019-03-05T07:22:52.750Z,19.82
2019-03-05T07:25:18.747Z,19.83
2019-03-05T07:27:44.728Z,19.83
2019-03-05T07:30:10.743Z,19.84
2019-03-05T07:32:36.754Z,19.83
2019-03-05T07:35:02.748Z,19.83
2019-03-05T07:37:28.791Z,19.84
2019-03-05T07:39:54.868Z,19.83
2019-03-05T07:42:20.856Z,19.84
2019-03-05T07:44:46.840Z,19.83
2019-03-05T07:47:12.800Z,19.82
2019-03-05T07:49:43.786Z,19.82
2019-03-05T07:52:06.520Z,19.84
2019-03-05T07:54:32.515Z,19.85
2019-03-05T07:56:59.504Z,19.85
2019-03-05T07:59:25.493Z,19.86
2019-03-05T08:01:51.557Z,19.87
2019-03-05T08:04:17.542Z,19.86
2019-03-05T08:06:43.620Z,19.86
2019-03-05T08:09:09.603Z,19.86
2019-03-05T08:11:35.690Z,19.87
2019-03-05T08:14:01.676Z,19.86
2019-03-05T08:16:27.748Z,19.86
2019-03-05T08:18:53.724Z,19.87
2019-03-05T08:21:19.714Z,19.87
2019-03-05T08:23:48.269Z,19.86
2019-03-05T08:26:13.406Z,19.87
2019-03-05T08:28:39.436Z,19.87
2019-03-05T08:31:05.459Z,19.87
2019-03-05T08:33:31.458Z,19.86
2019-03-05T08:35:57.549Z,19.87
2019-03-05T08:38:23.664Z,19.87
2019-03-05T08:40:49.650Z,19.87
2019-03-05T08:43:15.649Z,19.88
2019-03-05T08:45:41.739Z,19.88
2019-03-05T08:48:07.720Z,19.88
2019-03-05T08:50:33.757Z,19.88
2019-03-05T08:52:59.741Z,19.87
2019-03-05T08:55:25.719Z,19.87
2019-03-05T08:57:51.696Z,19.87
2019-03-05T09:00:17.687Z,19.86
2019-03-05T09:02:48.669Z,19.86
2019-03-05T09:05:11.606Z,19.87
2019-03-05T09:07:37.597Z,19.85
2019-03-05T09:10:03.651Z,19.86
2019-03-05T09:12:29.693Z,19.86
2019-03-05T09:14:55.690Z,19.86
2019-03-05T09:17:21.739Z,19.86
2019-03-05T09:19:47.731Z,19.86
2019-03-05T09:22:13.799Z,19.87
2019-03-05T09:24:39.810Z,19.86
2019-03-05T09:27:05.807Z,19.88
2019-03-05T09:29:31.800Z,19.87
2019-03-05T09:31:57.792Z,19.88
2019-03-05T09:34:23.797Z,19.88
2019-03-05T09:36:51.242Z,19.90
2019-03-05T09:39:17.614Z,19.92
2019-03-05T09:41:43.615Z,19.94
2019-03-05T09:44:09.699Z,19.96
2019-03-05T09:46:35.745Z,19.97
2019-03-05T09:49:01.792Z,20.00
2019-03-05T09:51:27.824Z,20.02
2019-03-05T09:53:53.833Z,20.04
2019-03-05T09:56:19.887Z,20.06
2019-03-05T09:58:45.988Z,20.08
2019-03-05T10:01:12.986Z,20.10
2019-03-05T10:03:39.093Z,20.11
2019-03-05T10:06:05.168Z,20.13
2019-03-05T10:08:32.820Z,20.17
2019-03-05T10:10:59.040Z,20.18
2019-03-05T10:13:25.069Z,20.20
2019-03-05T10:15:53.405Z,20.21
2019-03-05T10:18:18.812Z,20.22
2019-03-05T10:20:44.805Z,20.23
2019-03-05T10:23:15.186Z,20.24
2019-03-05T10:25:43.409Z,20.25
2019-03-05T10:28:15.289Z,20.28
2019-03-05T10:30:41.296Z,20.29
2019-03-05T10:33:09.411Z,20.31
2019-03-05T10:35:38.698Z,20.33
2019-03-05T10:40:39.761Z,20.37
2019-03-05T10:45:37.365Z,20.40
2019-03-05T10:48:08.437Z,20.41
2019-03-05T10:50:36.485Z,20.42
2019-03-05T10:53:06.025Z,20.43
2019-03-05T10:55:49.122Z,20.44
2019-03-05T10:58:16.405Z,20.46
2019-03-05T11:05:46.248Z,20.53
2019-03-05T11:08:12.323Z,20.55
2019-03-05T11:10:41.025Z,20.58
2019-03-05T11:18:09.957Z,20.65
2019-03-05T11:25:46.111Z,20.66
2019-03-05T11:36:00.597Z,20.68
2019-03-05T11:38:26.693Z,20.70
2019-03-05T11:40:52.788Z,20.72
2019-03-05T11:43:18.924Z,20.73
2019-03-05T11:45:49.472Z,20.76
2019-03-05T11:48:15.723Z,20.78
2019-03-05T11:50:41.952Z,20.78
2019-03-05T11:53:08.124Z,20.77
2019-03-05T12:00:49.955Z,20.74
2019-03-05T12:03:16.236Z,20.73
2019-03-05T12:05:42.316Z,20.71
2019-03-05T12:08:08.611Z,20.71
2019-03-05T12:13:05.975Z,20.67
2019-03-05T12:15:32.227Z,20.67
2019-03-05T12:17:58.370Z,20.65
2019-03-05T12:20:24.517Z,20.63
2019-03-05T12:22:50.745Z,20.62
2019-03-05T12:35:40.893Z,20.54
2019-03-05T12:38:10.826Z,20.52
2019-03-05T12:40:36.911Z,20.52
2019-03-05T12:45:34.344Z,20.49
2019-03-05T12:48:00.681Z,20.48
2019-03-05T12:50:26.845Z,20.47
2019-03-05T12:52:53.125Z,20.46
2019-03-05T13:00:34.344Z,20.45
2019-03-05T13:03:00.562Z,20.44
2019-03-05T13:10:34.868Z,20.43
2019-03-05T13:12:58.058Z,20.41
2019-03-05T13:18:07.970Z,20.39
2019-03-05T13:20:34.148Z,20.39
2019-03-05T13:23:00.351Z,20.38
2019-03-05T13:25:28.657Z,20.38
2019-03-05T13:28:10.511Z,20.37
2019-03-05T13:30:36.740Z,20.37
2019-03-05T13:33:02.979Z,20.35
2019-03-05T13:35:30.470Z,20.35
2019-03-05T13:37:58.700Z,20.34
2019-03-05T13:40:24.937Z,20.33
2019-03-05T13:42:51.161Z,20.33
2019-03-05T13:45:24.467Z,20.31
2019-03-05T13:47:50.667Z,20.32
2019-03-05T13:50:16.861Z,20.32
2019-03-05T13:52:43.078Z,20.31
2019-03-05T13:55:09.329Z,20.32
2019-03-05T13:57:35.586Z,20.31
2019-03-05T14:02:39.413Z,20.31
2019-03-05T14:05:10.680Z,20.31
2019-03-05T14:12:51.259Z,20.28
2019-03-05T14:18:03.315Z,20.28
2019-03-05T14:20:31.899Z,20.28
2019-03-05T14:22:57.528Z,20.28
2019-03-05T14:25:23.757Z,20.28
2019-03-05T14:27:49.994Z,20.27
2019-03-05T14:30:16.175Z,20.27
2019-03-05T14:32:42.464Z,20.26
2019-03-05T14:35:08.761Z,20.26
2019-03-05T14:37:34.964Z,20.26
2019-03-05T14:40:22.804Z,20.25
2019-03-05T14:42:31.091Z,20.24
2019-03-05T14:44:57.410Z,20.24
2019-03-05T14:47:23.594Z,20.24
2019-03-05T14:54:53.390Z,20.23
2019-03-05T14:57:26.920Z,20.23
2019-03-05T15:02:25.217Z,20.23
2019-03-05T15:07:35.334Z,20.22
2019-03-05T15:10:01.561Z,20.22
2019-03-05T15:12:28.013Z,20.22
2019-03-05T15:19:59.768Z,20.22
2019-03-05T15:25:10.248Z,20.22
2019-03-05T15:27:44.617Z,20.21
2019-03-05T15:30:10.794Z,20.20
2019-03-05T15:32:37.253Z,20.21
2019-03-05T15:35:03.405Z,20.21
2019-03-05T15:37:29.579Z,20.21
2019-03-05T15:39:55.772Z,20.21
2019-03-05T15:44:53.103Z,20.24
2019-03-05T15:47:19.197Z,20.26
2019-03-05T15:49:45.356Z,20.28
2019-03-05T15:52:12.834Z,20.31
2019-03-05T15:54:38.999Z,20.32
2019-03-05T15:57:06.007Z,20.32
2019-03-05T15:59:34.404Z,20.33
2019-03-05T16:02:01.464Z,20.32
2019-03-05T16:04:27.598Z,20.33
2019-03-05T16:06:53.708Z,20.32
2019-03-05T16:09:19.896Z,20.32
2019-03-05T16:11:46.061Z,20.32
2019-03-05T16:14:12.262Z,20.31
2019-03-05T16:16:38.443Z,20.30
2019-03-05T16:19:04.609Z,20.31
2019-03-05T16:21:30.812Z,20.31
2019-03-05T16:23:57.023Z,20.30
2019-03-05T16:26:24.681Z,20.30
2019-03-05T16:28:51.034Z,20.28
2019-03-05T16:31:17.198Z,20.28
2019-03-05T16:33:45.632Z,20.28
2019-03-05T16:36:12.928Z,20.28
2019-03-05T16:38:39.098Z,20.26
2019-03-05T16:41:07.521Z,20.27
2019-03-05T16:43:33.735Z,20.26
2019-03-05T16:45:59.906Z,20.26
2019-03-05T16:48:26.053Z,20.26
2019-03-05T16:50:52.171Z,20.25
2019-03-05T16:53:18.369Z,20.26
2019-03-05T16:55:44.523Z,20.25
2019-03-05T16:58:10.691Z,20.25
2019-03-05T17:00:36.919Z,20.24
2019-03-05T17:03:03.152Z,20.24
2019-03-05T17:05:29.412Z,20.24
2019-03-05T17:07:55.527Z,20.23
2019-03-05T17:10:21.853Z,20.24
2019-03-05T17:12:48.041Z,20.23
2019-03-05T17:15:14.433Z,20.24
2019-03-05T17:17:40.621Z,20.22
2019-03-05T17:20:06.763Z,20.22
2019-03-05T17:22:33.026Z,20.22
2019-03-05T17:24:59.259Z,20.22
2019-03-05T17:27:25.433Z,20.21
2019-03-05T17:29:52.170Z,20.21
2019-03-05T17:32:18.380Z,20.21
2019-03-05T17:34:44.703Z,20.20
2019-03-05T17:37:10.883Z,20.21
2019-03-05T17:39:37.156Z,20.20
2019-03-05T17:42:03.484Z,20.21
2019-03-05T17:44:29.884Z,20.21
2019-03-05T17:46:56.086Z,20.21
2019-03-05T17:49:22.258Z,20.21
2019-03-05T17:51:48.568Z,20.21
2019-03-05T17:54:14.735Z,20.21
2019-03-05T17:56:41.967Z,20.22
2019-03-05T17:59:08.258Z,20.21
2019-03-05T18:01:34.586Z,20.22
2019-03-05T18:04:00.776Z,20.22
2019-03-05T18:06:26.923Z,20.21
2019-03-05T18:08:53.145Z,20.21
2019-03-05T18:11:19.316Z,20.21
2019-03-05T18:13:45.807Z,20.22
2019-03-05T18:16:12.063Z,20.21
2019-03-05T18:18:38.245Z,20.21
2019-03-05T18:21:04.490Z,20.21
2019-03-05T18:23:30.596Z,20.21
2019-03-05T18:25:56.782Z,20.20
2019-03-05T18:28:23.280Z,20.20
2019-03-05T18:30:49.544Z,20.20
2019-03-05T18:33:15.873Z,20.20
2019-03-05T18:35:42.025Z,20.20
2019-03-05T18:38:08.243Z,20.19
2019-03-05T18:40:34.486Z,20.20
2019-03-05T18:43:00.945Z,20.20
2019-03-05T18:45:28.199Z,20.19
2019-03-05T18:47:54.571Z,20.18
2019-03-05T18:50:20.798Z,20.17
2019-03-05T18:52:46.984Z,20.17
2019-03-05T18:55:13.237Z,20.18
2019-03-05T18:57:39.387Z,20.17
2019-03-05T19:00:05.582Z,20.16
2019-03-05T19:02:31.780Z,20.17
2019-03-05T19:04:57.995Z,20.16
2019-03-05T19:07:24.251Z,20.15
2019-03-05T19:09:50.459Z,20.15
2019-03-05T19:12:16.740Z,20.14
2019-03-05T19:14:42.916Z,20.14
2019-03-05T19:17:09.274Z,20.13
2019-03-05T19:19:35.469Z,20.13
2019-03-05T19:22:01.720Z,20.13
2019-03-05T19:24:28.942Z,20.13
2019-03-05T19:26:55.235Z,20.13
2019-03-05T19:29:21.418Z,20.12
2019-03-05T19:31:47.617Z,20.12
2019-03-05T19:34:13.830Z,20.13
2019-03-05T19:36:39.999Z,20.12
2019-03-05T19:39:06.189Z,20.11
2019-03-05T19:41:32.412Z,20.11
2019-03-05T19:43:58.746Z,20.11
2019-03-05T19:46:25.025Z,20.10
2019-03-05T19:48:51.222Z,20.11
2019-03-05T19:51:17.361Z,20.11
2019-03-05T19:53:43.598Z,20.11
2019-03-05T19:56:09.785Z,20.12
2019-03-05T19:58:36.061Z,20.12
2019-03-05T20:01:02.285Z,20.12
2019-03-05T20:03:28.449Z,20.13
2019-03-05T20:05:54.687Z,20.12
2019-03-05T20:08:20.891Z,20.13
2019-03-05T20:10:47.125Z,20.12
2019-03-05T20:13:13.486Z,20.12
2019-03-05T20:15:41.143Z,20.12
2019-03-05T20:18:07.591Z,20.13
2019-03-05T20:20:33.741Z,20.11
2019-03-05T20:22:59.971Z,20.11
2019-03-05T20:25:26.224Z,20.12
2019-03-05T20:27:52.890Z,20.12
2019-03-05T20:30:19.079Z,20.12
2019-03-05T20:32:45.224Z,20.11
2019-03-05T20:35:11.421Z,20.11
2019-03-05T20:37:38.706Z,20.11
2019-03-05T20:40:04.847Z,20.10
2019-03-05T20:42:31.292Z,20.11
2019-03-05T20:44:57.393Z,20.11
2019-03-05T20:47:23.534Z,20.13
2019-03-05T20:49:49.716Z,20.16
2019-03-05T20:52:15.800Z,20.18
2019-03-05T20:54:41.922Z,20.18
2019-03-05T20:57:07.982Z,20.20
2019-03-05T20:59:34.388Z,20.21
2019-03-05T21:02:00.461Z,20.21
2019-03-05T21:04:26.467Z,20.22
2019-03-05T21:06:52.486Z,20.21
2019-03-05T21:09:18.482Z,20.21
2019-03-05T21:11:44.594Z,20.21
2019-03-05T21:14:10.618Z,20.22
2019-03-05T21:16:37.556Z,20.21
2019-03-05T21:19:03.614Z,20.21
2019-03-05T21:21:29.699Z,20.21
2019-03-05T21:23:55.747Z,20.21
2019-03-05T21:26:21.902Z,20.20
2019-03-05T21:28:47.954Z,20.20
2019-03-05T21:31:14.314Z,20.20
2019-03-05T21:33:40.348Z,20.19
2019-03-05T21:36:07.044Z,20.19
2019-03-05T21:38:33.030Z,20.18
2019-03-05T21:41:00.164Z,20.17
2019-03-05T21:43:26.307Z,20.16
2019-03-05T21:45:52.302Z,20.16
2019-03-05T21:48:18.371Z,20.15
2019-03-05T21:50:44.508Z,20.14
2019-03-05T21:53:10.640Z,20.14
2019-03-05T21:55:36.687Z,20.13
2019-03-05T21:58:02.751Z,20.12
2019-03-05T22:00:28.787Z,20.11
2019-03-05T22:02:54.825Z,20.10
2019-03-05T22:05:20.817Z,20.10
2019-03-05T22:07:48.806Z,20.10
2019-03-05T22:10:15.161Z,20.09
2019-03-05T22:12:41.223Z,20.08
2019-03-05T22:15:07.227Z,20.08
2019-03-05T22:17:33.312Z,20.07
2019-03-05T22:19:59.386Z,20.06
2019-03-05T22:22:25.401Z,20.06
2019-03-05T22:24:51.421Z,20.05
2019-03-05T22:27:17.507Z,20.04
2019-03-05T22:29:43.838Z,20.04
2019-03-05T22:32:10.692Z,20.03
2019-03-05T22:34:36.685Z,20.02
2019-03-05T22:37:02.722Z,20.02
2019-03-05T22:39:28.754Z,20.01
2019-03-05T22:41:54.795Z,20.01
2019-03-05T22:44:21.209Z,20.00
2019-03-05T22:46:47.228Z,20.00
2019-03-05T22:49:13.222Z,20.00
2019-03-05T22:51:39.327Z,20.00
2019-03-05T22:54:05.636Z,19.99
2019-03-05T22:56:31.842Z,19.98
2019-03-05T22:58:57.874Z,19.97
2019-03-05T23:01:23.894Z,19.97
2019-03-05T23:03:49.972Z,19.97
2019-03-05T23:06:17.070Z,19.95
2019-03-05T23:08:43.092Z,19.95
2019-03-05T23:11:09.185Z,19.96
2019-03-05T23:13:35.295Z,19.95
2019-03-05T23:16:01.398Z,19.94
2019-03-05T23:18:27.540Z,19.93
2019-03-05T23:20:53.537Z,19.93
2019-03-05T23:23:19.722Z,19.94
2019-03-05T23:25:46.224Z,19.91
2019-03-05T23:28:12.332Z,19.91
2019-03-05T23:30:38.727Z,19.90
2019-03-05T23:33:06.020Z,19.89
2019-03-05T23:35:32.084Z,19.89
2019-03-05T23:37:58.323Z,19.88
2019-03-05T23:40:25.136Z,19.88
2019-03-05T23:42:51.142Z,19.88
2019-03-05T23:45:17.718Z,19.87
2019-03-05T23:47:47.122Z,19.86
2019-03-05T23:50:13.220Z,19.86
2019-03-05T23:52:39.350Z,19.86
2019-03-05T23:55:05.379Z,19.84
2019-03-05T23:57:31.465Z,19.85
2019-03-05T23:59:58.482Z,19.85
